sensor_id;sensor_type;location;lat;lon;timestamp;P1;durP1;ratioP1;P2;durP2;ratioP2
76417;SDS011;65250;47.602;19.002;2023-04-25T00:01:23;1.50;;;1.35;;
76417;SDS011;65250;47.602;19.002;2023-04-25T00:03:50;1.70;;;0.90;;
76417;SDS011;65250;47.602;19.002;2023-04-25T00:06:18;1.30;;;1.05;;
76417;SDS011;65250;47.602;19.002;2023-04-25T00:08:44;1.67;;;1.20;;
76417;SDS011;65250;47.602;19.002;2023-04-25T00:11:11;1.77;;;1.02;;
76417;SDS011;65250;47.602;19.002;2023-04-25T00:13:38;1.30;;;0.98;;
76417;SDS011;65250;47.602;19.002;2023-04-25T00:16:08;2.13;;;1.33;;
76417;SDS011;65250;47.602;19.002;2023-04-25T00:18:35;2.38;;;1.45;;
76417;SDS011;65250;47.602;19.002;2023-04-25T00:21:02;3.53;;;1.30;;
76417;SDS011;65250;47.602;19.002;2023-04-25T00:23:32;1.55;;;1.23;;
76417;SDS011;65250;47.602;19.002;2023-04-25T00:25:59;2.10;;;1.27;;
76417;SDS011;65250;47.602;19.002;2023-04-25T00:28:25;1.80;;;1.30;;
76417;SDS011;65250;47.602;19.002;2023-04-25T00:30:52;2.78;;;1.45;;
76417;SDS011;65250;47.602;19.002;2023-04-25T00:33:19;1.63;;;1.50;;
76417;SDS011;65250;47.602;19.002;2023-04-25T00:35:46;1.45;;;1.10;;
76417;SDS011;65250;47.602;19.002;2023-04-25T00:38:12;2.10;;;1.50;;
76417;SDS011;65250;47.602;19.002;2023-04-25T00:40:39;2.77;;;1.77;;
76417;SDS011;65250;47.602;19.002;2023-04-25T00:43:06;2.28;;;1.48;;
76417;SDS011;65250;47.602;19.002;2023-04-25T00:45:33;2.45;;;1.60;;
76417;SDS011;65250;47.602;19.002;2023-04-25T00:48:04;2.38;;;1.50;;
76417;SDS011;65250;47.602;19.002;2023-04-25T00:50:32;1.95;;;1.55;;
76417;SDS011;65250;47.602;19.002;2023-04-25T00:53:00;2.37;;;1.63;;
76417;SDS011;65250;47.602;19.002;2023-04-25T00:55:26;3.85;;;1.80;;
76417;SDS011;65250;47.602;19.002;2023-04-25T00:57:53;2.88;;;1.67;;
76417;SDS011;65250;47.602;19.002;2023-04-25T01:00:20;2.60;;;1.60;;
76417;SDS011;65250;47.602;19.002;2023-04-25T01:02:47;2.90;;;1.80;;
76417;SDS011;65250;47.602;19.002;2023-04-25T01:05:14;2.47;;;1.73;;
76417;SDS011;65250;47.602;19.002;2023-04-25T01:07:41;2.70;;;1.77;;
76417;SDS011;65250;47.602;19.002;2023-04-25T01:10:08;2.67;;;1.83;;
76417;SDS011;65250;47.602;19.002;2023-04-25T01:12:35;3.10;;;2.03;;
76417;SDS011;65250;47.602;19.002;2023-04-25T01:15:02;2.35;;;1.92;;
76417;SDS011;65250;47.602;19.002;2023-04-25T01:17:29;2.57;;;1.67;;
76417;SDS011;65250;47.602;19.002;2023-04-25T01:19:57;2.60;;;2.05;;
76417;SDS011;65250;47.602;19.002;2023-04-25T01:22:24;2.75;;;1.90;;
76417;SDS011;65250;47.602;19.002;2023-04-25T01:24:52;2.63;;;1.88;;
76417;SDS011;65250;47.602;19.002;2023-04-25T01:27:19;2.95;;;2.28;;
76417;SDS011;65250;47.602;19.002;2023-04-25T01:29:47;2.57;;;1.97;;
76417;SDS011;65250;47.602;19.002;2023-04-25T01:32:14;3.40;;;2.30;;
76417;SDS011;65250;47.602;19.002;2023-04-25T01:34:41;3.83;;;2.50;;
76417;SDS011;65250;47.602;19.002;2023-04-25T01:37:08;2.92;;;2.28;;
76417;SDS011;65250;47.602;19.002;2023-04-25T01:39:34;2.65;;;1.83;;
76417;SDS011;65250;47.602;19.002;2023-04-25T01:42:01;2.33;;;2.13;;
76417;SDS011;65250;47.602;19.002;2023-04-25T01:44:28;2.60;;;2.08;;
76417;SDS011;65250;47.602;19.002;2023-04-25T01:46:55;3.83;;;2.40;;
76417;SDS011;65250;47.602;19.002;2023-04-25T01:49:22;2.72;;;1.95;;
76417;SDS011;65250;47.602;19.002;2023-04-25T01:51:50;2.53;;;2.20;;
76417;SDS011;65250;47.602;19.002;2023-04-25T01:54:16;3.97;;;1.97;;
76417;SDS011;65250;47.602;19.002;2023-04-25T01:56:43;3.03;;;2.10;;
76417;SDS011;65250;47.602;19.002;2023-04-25T01:59:10;2.67;;;2.10;;
76417;SDS011;65250;47.602;19.002;2023-04-25T02:01:37;2.85;;;2.20;;
76417;SDS011;65250;47.602;19.002;2023-04-25T02:04:04;3.92;;;1.95;;
76417;SDS011;65250;47.602;19.002;2023-04-25T02:06:31;3.10;;;2.27;;
76417;SDS011;65250;47.602;19.002;2023-04-25T02:08:58;2.65;;;2.08;;
76417;SDS011;65250;47.602;19.002;2023-04-25T02:11:25;3.80;;;2.40;;
76417;SDS011;65250;47.602;19.002;2023-04-25T02:13:52;2.97;;;2.30;;
76417;SDS011;65250;47.602;19.002;2023-04-25T02:16:18;6.60;;;2.33;;
76417;SDS011;65250;47.602;19.002;2023-04-25T02:18:45;2.30;;;2.00;;
76417;SDS011;65250;47.602;19.002;2023-04-25T02:21:13;3.20;;;2.20;;
76417;SDS011;65250;47.602;19.002;2023-04-25T02:23:40;3.20;;;2.20;;
76417;SDS011;65250;47.602;19.002;2023-04-25T02:26:06;2.13;;;1.90;;
76417;SDS011;65250;47.602;19.002;2023-04-25T02:28:33;2.72;;;1.90;;
76417;SDS011;65250;47.602;19.002;2023-04-25T02:31:00;2.43;;;2.17;;
76417;SDS011;65250;47.602;19.002;2023-04-25T02:33:27;2.55;;;1.65;;
76417;SDS011;65250;47.602;19.002;2023-04-25T02:35:53;2.75;;;1.70;;
76417;SDS011;65250;47.602;19.002;2023-04-25T02:38:20;1.60;;;1.30;;
76417;SDS011;65250;47.602;19.002;2023-04-25T02:40:47;1.80;;;1.30;;
76417;SDS011;65250;47.602;19.002;2023-04-25T02:43:14;2.80;;;1.60;;
76417;SDS011;65250;47.602;19.002;2023-04-25T02:45:40;2.10;;;1.13;;
76417;SDS011;65250;47.602;19.002;2023-04-25T02:48:07;2.25;;;1.20;;
76417;SDS011;65250;47.602;19.002;2023-04-25T02:50:34;2.47;;;1.20;;
76417;SDS011;65250;47.602;19.002;2023-04-25T02:53:01;2.03;;;1.40;;
76417;SDS011;65250;47.602;19.002;2023-04-25T02:55:27;2.43;;;1.50;;
76417;SDS011;65250;47.602;19.002;2023-04-25T02:57:54;2.38;;;1.55;;
76417;SDS011;65250;47.602;19.002;2023-04-25T03:00:24;3.83;;;2.10;;
76417;SDS011;65250;47.602;19.002;2023-04-25T03:02:50;2.92;;;2.15;;
76417;SDS011;65250;47.602;19.002;2023-04-25T03:05:17;3.83;;;2.17;;
76417;SDS011;65250;47.602;19.002;2023-04-25T03:07:44;3.03;;;2.10;;
76417;SDS011;65250;47.602;19.002;2023-04-25T03:10:12;4.30;;;2.15;;
76417;SDS011;65250;47.602;19.002;2023-04-25T03:12:38;3.30;;;2.47;;
76417;SDS011;65250;47.602;19.002;2023-04-25T03:15:05;3.28;;;2.10;;
76417;SDS011;65250;47.602;19.002;2023-04-25T03:17:32;3.13;;;2.40;;
76417;SDS011;65250;47.602;19.002;2023-04-25T03:19:59;3.70;;;2.37;;
76417;SDS011;65250;47.602;19.002;2023-04-25T03:22:26;3.00;;;2.10;;
76417;SDS011;65250;47.602;19.002;2023-04-25T03:24:53;5.53;;;2.13;;
76417;SDS011;65250;47.602;19.002;2023-04-25T03:27:20;3.17;;;2.20;;
76417;SDS011;65250;47.602;19.002;2023-04-25T03:29:47;4.05;;;2.30;;
76417;SDS011;65250;47.602;19.002;2023-04-25T03:32:13;5.23;;;1.90;;
76417;SDS011;65250;47.602;19.002;2023-04-25T03:34:40;2.65;;;2.10;;
76417;SDS011;65250;47.602;19.002;2023-04-25T03:37:07;2.78;;;1.90;;
76417;SDS011;65250;47.602;19.002;2023-04-25T03:39:34;4.13;;;2.10;;
76417;SDS011;65250;47.602;19.002;2023-04-25T03:42:01;3.72;;;2.50;;
76417;SDS011;65250;47.602;19.002;2023-04-25T03:44:29;2.37;;;2.07;;
76417;SDS011;65250;47.602;19.002;2023-04-25T03:46:56;3.03;;;2.10;;
76417;SDS011;65250;47.602;19.002;2023-04-25T03:49:23;3.58;;;2.40;;
76417;SDS011;65250;47.602;19.002;2023-04-25T03:51:50;2.80;;;2.00;;
76417;SDS011;65250;47.602;19.002;2023-04-25T03:54:17;3.78;;;2.50;;
76417;SDS011;65250;47.602;19.002;2023-04-25T03:56:44;3.27;;;2.47;;
76417;SDS011;65250;47.602;19.002;2023-04-25T03:59:10;3.13;;;2.15;;
76417;SDS011;65250;47.602;19.002;2023-04-25T04:01:40;4.57;;;2.55;;
76417;SDS011;65250;47.602;19.002;2023-04-25T04:04:07;5.03;;;2.28;;
76417;SDS011;65250;47.602;19.002;2023-04-25T04:06:34;3.92;;;2.63;;
76417;SDS011;65250;47.602;19.002;2023-04-25T04:09:02;3.00;;;2.40;;
76417;SDS011;65250;47.602;19.002;2023-04-25T04:11:29;3.65;;;2.42;;
76417;SDS011;65250;47.602;19.002;2023-04-25T04:13:57;4.05;;;2.75;;
76417;SDS011;65250;47.602;19.002;2023-04-25T04:16:24;3.80;;;2.80;;
76417;SDS011;65250;47.602;19.002;2023-04-25T04:18:51;3.30;;;2.33;;
76417;SDS011;65250;47.602;19.002;2023-04-25T04:21:18;4.40;;;2.70;;
76417;SDS011;65250;47.602;19.002;2023-04-25T04:23:44;4.20;;;2.47;;
76417;SDS011;65250;47.602;19.002;2023-04-25T04:26:13;3.55;;;2.20;;
76417;SDS011;65250;47.602;19.002;2023-04-25T04:28:42;5.25;;;2.60;;
76417;SDS011;65250;47.602;19.002;2023-04-25T04:31:10;3.50;;;2.70;;
76417;SDS011;65250;47.602;19.002;2023-04-25T04:33:38;5.13;;;2.27;;
76417;SDS011;65250;47.602;19.002;2023-04-25T04:36:04;3.10;;;2.22;;
76417;SDS011;65250;47.602;19.002;2023-04-25T04:38:33;2.80;;;2.35;;
76417;SDS011;65250;47.602;19.002;2023-04-25T04:41:01;3.92;;;2.63;;
76417;SDS011;65250;47.602;19.002;2023-04-25T04:43:27;3.20;;;2.50;;
76417;SDS011;65250;47.602;19.002;2023-04-25T04:45:55;3.03;;;2.53;;
76417;SDS011;65250;47.602;19.002;2023-04-25T04:48:25;3.70;;;2.47;;
76417;SDS011;65250;47.602;19.002;2023-04-25T04:50:51;4.13;;;2.65;;
76417;SDS011;65250;47.602;19.002;2023-04-25T04:53:18;5.13;;;2.83;;
76417;SDS011;65250;47.602;19.002;2023-04-25T04:55:45;5.63;;;2.78;;
76417;SDS011;65250;47.602;19.002;2023-04-25T04:58:12;3.50;;;2.10;;
76417;SDS011;65250;47.602;19.002;2023-04-25T05:00:39;2.90;;;2.55;;
76417;SDS011;65250;47.602;19.002;2023-04-25T05:03:06;3.85;;;2.63;;
76417;SDS011;65250;47.602;19.002;2023-04-25T05:05:33;4.90;;;3.03;;
76417;SDS011;65250;47.602;19.002;2023-04-25T05:08:03;2.95;;;2.20;;
76417;SDS011;65250;47.602;19.002;2023-04-25T05:10:29;3.87;;;2.70;;
76417;SDS011;65250;47.602;19.002;2023-04-25T05:12:56;4.00;;;2.33;;
76417;SDS011;65250;47.602;19.002;2023-04-25T05:15:23;4.75;;;2.88;;
76417;SDS011;65250;47.602;19.002;2023-04-25T05:17:50;4.07;;;2.83;;
76417;SDS011;65250;47.602;19.002;2023-04-25T05:20:17;3.28;;;2.42;;
76417;SDS011;65250;47.602;19.002;2023-04-25T05:22:45;3.13;;;2.23;;
76417;SDS011;65250;47.602;19.002;2023-04-25T05:25:12;2.85;;;2.40;;
76417;SDS011;65250;47.602;19.002;2023-04-25T05:27:38;4.00;;;2.63;;
76417;SDS011;65250;47.602;19.002;2023-04-25T05:30:05;3.83;;;2.80;;
76417;SDS011;65250;47.602;19.002;2023-04-25T05:32:33;4.22;;;3.00;;
76417;SDS011;65250;47.602;19.002;2023-04-25T05:35:00;4.10;;;2.47;;
76417;SDS011;65250;47.602;19.002;2023-04-25T05:37:26;3.22;;;2.63;;
76417;SDS011;65250;47.602;19.002;2023-04-25T05:39:53;4.70;;;2.30;;
76417;SDS011;65250;47.602;19.002;2023-04-25T05:42:20;3.55;;;2.60;;
76417;SDS011;65250;47.602;19.002;2023-04-25T05:44:47;4.15;;;2.58;;
76417;SDS011;65250;47.602;19.002;2023-04-25T05:47:14;5.33;;;2.13;;
76417;SDS011;65250;47.602;19.002;2023-04-25T05:49:41;5.15;;;2.25;;
76417;SDS011;65250;47.602;19.002;2023-04-25T05:52:08;5.55;;;2.25;;
76417;SDS011;65250;47.602;19.002;2023-04-25T05:54:35;5.75;;;2.42;;
76417;SDS011;65250;47.602;19.002;2023-04-25T05:57:02;4.75;;;2.28;;
76417;SDS011;65250;47.602;19.002;2023-04-25T05:59:29;3.20;;;2.23;;
76417;SDS011;65250;47.602;19.002;2023-04-25T06:01:55;5.13;;;2.78;;
76417;SDS011;65250;47.602;19.002;2023-04-25T06:04:22;4.72;;;3.05;;
76417;SDS011;65250;47.602;19.002;2023-04-25T06:06:49;5.78;;;3.00;;
76417;SDS011;65250;47.602;19.002;2023-04-25T06:09:17;3.92;;;3.40;;
76417;SDS011;65250;47.602;19.002;2023-04-25T06:11:43;5.30;;;3.37;;
76417;SDS011;65250;47.602;19.002;2023-04-25T06:14:11;3.95;;;3.22;;
76417;SDS011;65250;47.602;19.002;2023-04-25T06:16:37;4.72;;;3.80;;
76417;SDS011;65250;47.602;19.002;2023-04-25T06:19:04;6.88;;;3.55;;
76417;SDS011;65250;47.602;19.002;2023-04-25T06:21:31;4.88;;;4.00;;
76417;SDS011;65250;47.602;19.002;2023-04-25T06:23:58;4.93;;;3.80;;
76417;SDS011;65250;47.602;19.002;2023-04-25T06:26:25;6.28;;;4.85;;
76417;SDS011;65250;47.602;19.002;2023-04-25T06:28:52;7.40;;;5.68;;
76417;SDS011;65250;47.602;19.002;2023-04-25T06:31:19;7.55;;;5.07;;
76417;SDS011;65250;47.602;19.002;2023-04-25T06:33:46;6.63;;;5.30;;
76417;SDS011;65250;47.602;19.002;2023-04-25T06:36:15;6.43;;;4.30;;
76417;SDS011;65250;47.602;19.002;2023-04-25T06:38:41;6.93;;;4.50;;
76417;SDS011;65250;47.602;19.002;2023-04-25T06:41:09;5.97;;;4.53;;
76417;SDS011;65250;47.602;19.002;2023-04-25T06:43:35;5.60;;;4.10;;
76417;SDS011;65250;47.602;19.002;2023-04-25T06:46:02;5.15;;;3.90;;
76417;SDS011;65250;47.602;19.002;2023-04-25T06:48:29;5.30;;;3.47;;
76417;SDS011;65250;47.602;19.002;2023-04-25T06:50:56;4.82;;;3.47;;
76417;SDS011;65250;47.602;19.002;2023-04-25T06:53:23;5.45;;;3.60;;
76417;SDS011;65250;47.602;19.002;2023-04-25T06:55:50;6.30;;;3.60;;
76417;SDS011;65250;47.602;19.002;2023-04-25T06:58:17;4.05;;;3.33;;
76417;SDS011;65250;47.602;19.002;2023-04-25T07:00:44;4.17;;;3.57;;
76417;SDS011;65250;47.602;19.002;2023-04-25T07:03:11;4.90;;;3.80;;
76417;SDS011;65250;47.602;19.002;2023-04-25T07:05:40;5.25;;;3.67;;
76417;SDS011;65250;47.602;19.002;2023-04-25T07:08:07;5.40;;;3.55;;
76417;SDS011;65250;47.602;19.002;2023-04-25T07:10:34;6.03;;;3.58;;
76417;SDS011;65250;47.602;19.002;2023-04-25T07:13:01;4.33;;;3.00;;
76417;SDS011;65250;47.602;19.002;2023-04-25T07:15:28;4.88;;;3.28;;
76417;SDS011;65250;47.602;19.002;2023-04-25T07:17:55;4.38;;;3.20;;
76417;SDS011;65250;47.602;19.002;2023-04-25T07:20:21;4.00;;;3.40;;
76417;SDS011;65250;47.602;19.002;2023-04-25T07:22:48;3.95;;;3.10;;
76417;SDS011;65250;47.602;19.002;2023-04-25T07:25:16;4.20;;;3.40;;
76417;SDS011;65250;47.602;19.002;2023-04-25T07:27:43;4.13;;;3.45;;
76417;SDS011;65250;47.602;19.002;2023-04-25T07:30:10;3.95;;;3.28;;
76417;SDS011;65250;47.602;19.002;2023-04-25T07:32:38;3.63;;;3.22;;
76417;SDS011;65250;47.602;19.002;2023-04-25T07:35:06;3.38;;;2.75;;
76417;SDS011;65250;47.602;19.002;2023-04-25T07:37:34;4.83;;;3.23;;
76417;SDS011;65250;47.602;19.002;2023-04-25T07:40:02;4.18;;;3.33;;
76417;SDS011;65250;47.602;19.002;2023-04-25T07:42:30;3.83;;;3.20;;
76417;SDS011;65250;47.602;19.002;2023-04-25T07:44:57;5.05;;;3.42;;
76417;SDS011;65250;47.602;19.002;2023-04-25T07:47:24;4.00;;;3.22;;
76417;SDS011;65250;47.602;19.002;2023-04-25T07:49:51;4.00;;;2.97;;
76417;SDS011;65250;47.602;19.002;2023-04-25T07:52:21;5.47;;;3.15;;
76417;SDS011;65250;47.602;19.002;2023-04-25T07:54:47;5.55;;;3.70;;
76417;SDS011;65250;47.602;19.002;2023-04-25T07:57:15;5.63;;;2.80;;
76417;SDS011;65250;47.602;19.002;2023-04-25T07:59:43;7.80;;;2.90;;
76417;SDS011;65250;47.602;19.002;2023-04-25T08:02:10;3.83;;;2.80;;
76417;SDS011;65250;47.602;19.002;2023-04-25T08:04:37;3.13;;;2.60;;
76417;SDS011;65250;47.602;19.002;2023-04-25T08:07:04;3.78;;;2.70;;
76417;SDS011;65250;47.602;19.002;2023-04-25T08:09:31;2.80;;;2.50;;
76417;SDS011;65250;47.602;19.002;2023-04-25T08:12:01;3.33;;;3.03;;
76417;SDS011;65250;47.602;19.002;2023-04-25T08:14:28;2.93;;;2.37;;
76417;SDS011;65250;47.602;19.002;2023-04-25T08:17:03;2.97;;;2.58;;
76417;SDS011;65250;47.602;19.002;2023-04-25T08:19:30;5.20;;;2.70;;
76417;SDS011;65250;47.602;19.002;2023-04-25T08:21:57;3.15;;;2.08;;
76417;SDS011;65250;47.602;19.002;2023-04-25T08:24:25;3.03;;;2.55;;
76417;SDS011;65250;47.602;19.002;2023-04-25T08:26:52;3.70;;;2.37;;
76417;SDS011;65250;47.602;19.002;2023-04-25T08:29:20;2.40;;;2.20;;
76417;SDS011;65250;47.602;19.002;2023-04-25T08:31:47;2.83;;;2.30;;
76417;SDS011;65250;47.602;19.002;2023-04-25T08:34:14;3.28;;;2.03;;
76417;SDS011;65250;47.602;19.002;2023-04-25T08:36:41;2.35;;;2.13;;
76417;SDS011;65250;47.602;19.002;2023-04-25T08:39:08;5.73;;;2.27;;
76417;SDS011;65250;47.602;19.002;2023-04-25T08:41:36;3.65;;;2.10;;
76417;SDS011;65250;47.602;19.002;2023-04-25T08:44:03;2.40;;;2.20;;
76417;SDS011;65250;47.602;19.002;2023-04-25T08:46:31;6.80;;;2.63;;
76417;SDS011;65250;47.602;19.002;2023-04-25T08:49:00;3.22;;;2.53;;
76417;SDS011;65250;47.602;19.002;2023-04-25T08:51:30;3.83;;;2.20;;
76417;SDS011;65250;47.602;19.002;2023-04-25T08:54:11;4.25;;;2.20;;
76417;SDS011;65250;47.602;19.002;2023-04-25T08:56:45;4.60;;;2.97;;
76417;SDS011;65250;47.602;19.002;2023-04-25T08:59:14;3.10;;;2.45;;
76417;SDS011;65250;47.602;19.002;2023-04-25T09:01:43;3.92;;;2.92;;
76417;SDS011;65250;47.602;19.002;2023-04-25T09:04:10;6.17;;;2.97;;
76417;SDS011;65250;47.602;19.002;2023-04-25T09:06:39;3.78;;;3.00;;
76417;SDS011;65250;47.602;19.002;2023-04-25T09:09:06;4.03;;;2.50;;
76417;SDS011;65250;47.602;19.002;2023-04-25T09:11:35;2.45;;;2.25;;
76417;SDS011;65250;47.602;19.002;2023-04-25T09:14:12;4.22;;;2.63;;
76417;SDS011;65250;47.602;19.002;2023-04-25T09:19:26;3.70;;;2.47;;
76417;SDS011;65250;47.602;19.002;2023-04-25T09:22:12;2.88;;;2.20;;
76417;SDS011;65250;47.602;19.002;2023-04-25T09:24:41;2.72;;;2.20;;
76417;SDS011;65250;47.602;19.002;2023-04-25T09:27:13;2.60;;;2.00;;
76417;SDS011;65250;47.602;19.002;2023-04-25T09:29:45;4.43;;;2.27;;
76417;SDS011;65250;47.602;19.002;2023-04-25T09:32:17;2.50;;;1.90;;
76417;SDS011;65250;47.602;19.002;2023-04-25T09:34:48;2.45;;;1.80;;
76417;SDS011;65250;47.602;19.002;2023-04-25T09:37:17;2.10;;;1.60;;
76417;SDS011;65250;47.602;19.002;2023-04-25T09:39:46;1.65;;;1.50;;
76417;SDS011;65250;47.602;19.002;2023-04-25T09:42:14;2.43;;;1.40;;
76417;SDS011;65250;47.602;19.002;2023-04-25T09:44:43;1.90;;;1.80;;
76417;SDS011;65250;47.602;19.002;2023-04-25T09:47:11;2.78;;;1.77;;
76417;SDS011;65250;47.602;19.002;2023-04-25T09:49:39;5.97;;;1.55;;
76417;SDS011;65250;47.602;19.002;2023-04-25T09:52:17;1.95;;;1.80;;
76417;SDS011;65250;47.602;19.002;2023-04-25T09:54:45;4.07;;;1.60;;
76417;SDS011;65250;47.602;19.002;2023-04-25T09:57:23;3.60;;;1.38;;
76417;SDS011;65250;47.602;19.002;2023-04-25T09:59:51;1.70;;;1.20;;
76417;SDS011;65250;47.602;19.002;2023-04-25T10:02:20;3.72;;;1.20;;
76417;SDS011;65250;47.602;19.002;2023-04-25T10:04:52;1.45;;;1.30;;
76417;SDS011;65250;47.602;19.002;2023-04-25T10:07:26;1.43;;;0.87;;
76417;SDS011;65250;47.602;19.002;2023-04-25T10:09:58;1.17;;;0.85;;
76417;SDS011;65250;47.602;19.002;2023-04-25T10:12:27;1.88;;;0.93;;
76417;SDS011;65250;47.602;19.002;2023-04-25T10:14:54;2.10;;;1.00;;
76417;SDS011;65250;47.602;19.002;2023-04-25T10:17:21;2.97;;;1.00;;
76417;SDS011;65250;47.602;19.002;2023-04-25T10:19:48;1.00;;;0.90;;
76417;SDS011;65250;47.602;19.002;2023-04-25T10:22:35;1.23;;;0.70;;
76417;SDS011;65250;47.602;19.002;2023-04-25T10:25:03;2.13;;;0.80;;
76417;SDS011;65250;47.602;19.002;2023-04-25T10:27:31;1.67;;;0.70;;
76417;SDS011;65250;47.602;19.002;2023-04-25T10:30:02;0.70;;;0.70;;
76417;SDS011;65250;47.602;19.002;2023-04-25T10:32:38;1.20;;;0.50;;
76417;SDS011;65250;47.602;19.002;2023-04-25T10:37:51;0.60;;;0.60;;
76417;SDS011;65250;47.602;19.002;2023-04-25T10:40:23;0.50;;;0.43;;
76417;SDS011;65250;47.602;19.002;2023-04-25T10:42:53;9.85;;;1.10;;
76417;SDS011;65250;47.602;19.002;2023-04-25T10:45:21;1.00;;;0.50;;
76417;SDS011;65250;47.602;19.002;2023-04-25T10:47:48;2.95;;;0.80;;
76417;SDS011;65250;47.602;19.002;2023-04-25T10:50:17;8.95;;;0.88;;
76417;SDS011;65250;47.602;19.002;2023-04-25T10:52:45;1.83;;;0.68;;
76417;SDS011;65250;47.602;19.002;2023-04-25T10:55:13;2.50;;;0.70;;
76417;SDS011;65250;47.602;19.002;2023-04-25T10:57:40;2.00;;;0.63;;
76417;SDS011;65250;47.602;19.002;2023-04-25T11:02:40;3.03;;;1.10;;
76417;SDS011;65250;47.602;19.002;2023-04-25T11:05:35;2.25;;;0.85;;
76417;SDS011;65250;47.602;19.002;2023-04-25T11:08:27;2.35;;;0.75;;
76417;SDS011;65250;47.602;19.002;2023-04-25T11:11:06;2.37;;;1.00;;
76417;SDS011;65250;47.602;19.002;2023-04-25T11:13:34;1.98;;;0.80;;
76417;SDS011;65250;47.602;19.002;2023-04-25T11:16:01;1.10;;;0.70;;
76417;SDS011;65250;47.602;19.002;2023-04-25T11:18:40;2.67;;;0.80;;
76417;SDS011;65250;47.602;19.002;2023-04-25T11:21:10;2.30;;;0.70;;
76417;SDS011;65250;47.602;19.002;2023-04-25T11:23:37;2.20;;;1.07;;
76417;SDS011;65250;47.602;19.002;2023-04-25T11:26:04;0.60;;;0.60;;
76417;SDS011;65250;47.602;19.002;2023-04-25T11:28:31;1.35;;;1.13;;
76417;SDS011;65250;47.602;19.002;2023-04-25T11:30:58;1.77;;;1.40;;
76417;SDS011;65250;47.602;19.002;2023-04-25T11:33:25;1.40;;;1.40;;
76417;SDS011;65250;47.602;19.002;2023-04-25T11:35:54;1.90;;;1.10;;
76417;SDS011;65250;47.602;19.002;2023-04-25T11:38:24;4.28;;;1.10;;
76417;SDS011;65250;47.602;19.002;2023-04-25T11:40:54;1.00;;;0.70;;
76417;SDS011;65250;47.602;19.002;2023-04-25T11:43:21;1.98;;;0.95;;
76417;SDS011;65250;47.602;19.002;2023-04-25T11:45:49;2.95;;;0.90;;
76417;SDS011;65250;47.602;19.002;2023-04-25T11:48:20;0.97;;;0.87;;
76417;SDS011;65250;47.602;19.002;2023-04-25T11:50:53;0.75;;;0.60;;
76417;SDS011;65250;47.602;19.002;2023-04-25T11:53:20;1.15;;;0.65;;
76417;SDS011;65250;47.602;19.002;2023-04-25T11:55:47;0.60;;;0.55;;
76417;SDS011;65250;47.602;19.002;2023-04-25T11:58:14;0.80;;;0.70;;
76417;SDS011;65250;47.602;19.002;2023-04-25T12:00:41;0.73;;;0.53;;
76417;SDS011;65250;47.602;19.002;2023-04-25T12:03:17;1.40;;;0.80;;
76417;SDS011;65250;47.602;19.002;2023-04-25T12:05:46;1.67;;;1.10;;
76417;SDS011;65250;47.602;19.002;2023-04-25T12:08:14;1.20;;;0.90;;
76417;SDS011;65250;47.602;19.002;2023-04-25T12:10:43;3.63;;;0.95;;
76417;SDS011;65250;47.602;19.002;2023-04-25T12:13:21;1.00;;;0.90;;
76417;SDS011;65250;47.602;19.002;2023-04-25T12:15:50;2.92;;;1.30;;
76417;SDS011;65250;47.602;19.002;2023-04-25T12:18:20;9.35;;;1.27;;
76417;SDS011;65250;47.602;19.002;2023-04-25T12:20:49;3.42;;;1.20;;
76417;SDS011;65250;47.602;19.002;2023-04-25T12:23:16;1.40;;;1.30;;
76417;SDS011;65250;47.602;19.002;2023-04-25T12:25:43;1.60;;;1.50;;
76417;SDS011;65250;47.602;19.002;2023-04-25T12:28:17;2.20;;;2.03;;
76417;SDS011;65250;47.602;19.002;2023-04-25T12:33:30;2.75;;;1.58;;
76417;SDS011;65250;47.602;19.002;2023-04-25T12:35:59;2.70;;;2.60;;
76417;SDS011;65250;47.602;19.002;2023-04-25T12:38:28;1.90;;;1.80;;
76417;SDS011;65250;47.602;19.002;2023-04-25T12:40:57;5.75;;;2.80;;
76417;SDS011;65250;47.602;19.002;2023-04-25T12:43:24;3.08;;;2.88;;
76417;SDS011;65250;47.602;19.002;2023-04-25T12:45:54;3.50;;;3.20;;
76417;SDS011;65250;47.602;19.002;2023-04-25T12:48:22;4.93;;;3.70;;
76417;SDS011;65250;47.602;19.002;2023-04-25T12:50:49;3.53;;;3.23;;
76417;SDS011;65250;47.602;19.002;2023-04-25T12:53:20;3.50;;;3.20;;
76417;SDS011;65250;47.602;19.002;2023-04-25T12:55:49;4.35;;;4.00;;
76417;SDS011;65250;47.602;19.002;2023-04-25T12:58:16;3.90;;;3.60;;
76417;SDS011;65250;47.602;19.002;2023-04-25T13:00:44;5.15;;;4.15;;
76417;SDS011;65250;47.602;19.002;2023-04-25T13:03:12;4.07;;;3.87;;
76417;SDS011;65250;47.602;19.002;2023-04-25T13:05:39;4.13;;;3.92;;
76417;SDS011;65250;47.602;19.002;2023-04-25T13:08:07;4.18;;;3.92;;
76417;SDS011;65250;47.602;19.002;2023-04-25T13:10:34;4.50;;;4.20;;
76417;SDS011;65250;47.602;19.002;2023-04-25T13:13:02;4.55;;;4.32;;
76417;SDS011;65250;47.602;19.002;2023-04-25T13:15:30;4.23;;;4.03;;
76417;SDS011;65250;47.602;19.002;2023-04-25T13:17:57;4.22;;;3.92;;
76417;SDS011;65250;47.602;19.002;2023-04-25T13:20:23;4.75;;;4.35;;
76417;SDS011;65250;47.602;19.002;2023-04-25T13:22:51;5.43;;;5.03;;
76417;SDS011;65250;47.602;19.002;2023-04-25T13:25:18;5.00;;;4.70;;
76417;SDS011;65250;47.602;19.002;2023-04-25T13:27:45;4.73;;;4.50;;
76417;SDS011;65250;47.602;19.002;2023-04-25T13:30:12;5.28;;;4.97;;
76417;SDS011;65250;47.602;19.002;2023-04-25T13:32:40;5.47;;;5.18;;
76417;SDS011;65250;47.602;19.002;2023-04-25T13:35:11;4.25;;;3.95;;
76417;SDS011;65250;47.602;19.002;2023-04-25T13:37:39;5.18;;;4.78;;
76417;SDS011;65250;47.602;19.002;2023-04-25T13:40:08;4.77;;;4.47;;
76417;SDS011;65250;47.602;19.002;2023-04-25T13:42:37;5.22;;;4.82;;
76417;SDS011;65250;47.602;19.002;2023-04-25T13:45:04;2.97;;;2.88;;
76417;SDS011;65250;47.602;19.002;2023-04-25T13:47:32;5.18;;;3.92;;
76417;SDS011;65250;47.602;19.002;2023-04-25T13:49:59;4.63;;;2.63;;
76417;SDS011;65250;47.602;19.002;2023-04-25T13:52:26;6.13;;;3.60;;
76417;SDS011;65250;47.602;19.002;2023-04-25T13:54:53;4.53;;;4.32;;
76417;SDS011;65250;47.602;19.002;2023-04-25T13:57:20;4.07;;;3.88;;
76417;SDS011;65250;47.602;19.002;2023-04-25T13:59:47;6.75;;;4.28;;
76417;SDS011;65250;47.602;19.002;2023-04-25T14:02:15;5.28;;;4.88;;
76417;SDS011;65250;47.602;19.002;2023-04-25T14:04:42;2.70;;;2.60;;
76417;SDS011;65250;47.602;19.002;2023-04-25T14:07:09;5.10;;;4.40;;
76417;SDS011;65250;47.602;19.002;2023-04-25T14:09:37;6.70;;;4.57;;
76417;SDS011;65250;47.602;19.002;2023-04-25T14:12:06;4.78;;;4.38;;
76417;SDS011;65250;47.602;19.002;2023-04-25T14:14:33;4.35;;;4.13;;
76417;SDS011;65250;47.602;19.002;2023-04-25T14:16:59;4.20;;;4.00;;
76417;SDS011;65250;47.602;19.002;2023-04-25T14:19:26;2.15;;;2.05;;
76417;SDS011;65250;47.602;19.002;2023-04-25T14:21:55;5.32;;;3.70;;
76417;SDS011;65250;47.602;19.002;2023-04-25T14:24:22;5.60;;;3.60;;
76417;SDS011;65250;47.602;19.002;2023-04-25T14:26:49;3.03;;;2.83;;
76417;SDS011;65250;47.602;19.002;2023-04-25T14:29:16;4.03;;;3.63;;
76417;SDS011;65250;47.602;19.002;2023-04-25T14:31:43;3.30;;;3.05;;
76417;SDS011;65250;47.602;19.002;2023-04-25T14:34:11;4.43;;;4.10;;
76417;SDS011;65250;47.602;19.002;2023-04-25T14:36:38;8.65;;;4.25;;
76417;SDS011;65250;47.602;19.002;2023-04-25T14:39:05;5.00;;;4.00;;
76417;SDS011;65250;47.602;19.002;2023-04-25T14:41:32;3.90;;;3.60;;
76417;SDS011;65250;47.602;19.002;2023-04-25T14:43:58;4.80;;;4.50;;
76417;SDS011;65250;47.602;19.002;2023-04-25T14:46:26;4.47;;;4.13;;
76417;SDS011;65250;47.602;19.002;2023-04-25T14:48:53;5.15;;;4.57;;